Time;durP1;ratioP1;P1;durP2;ratioP2;P2;SDS_P1;SDS_P2;PMS_P1;PMS_P2;Temp;Humidity;BMP_temperature;BMP_pressure;BME280_temperature;BME280_humidity;BME280_pressure;Samples;Min_cycle;Max_cycle;Signal;HPM_P1;HPM_P2
2021/01/01 00:00:47;;;;;;;32.78;19.30;;;;;;;1.60;58.78;94555.84;4771721;29;20063;-41
2021/01/01 00:03:14;;;;;;;25.25;16.85;;;;;;;1.62;58.37;94545.63;4771542;29;20128;-40
2021/01/01 00:05:41;;;;;;;28.98;17.17;;;;;;;1.68;58.24;94537.50;4771838;29;20336;-40
2021/01/01 00:08:08;;;;;;;27.50;16.58;;;;;;;1.61;58.00;94536.06;4770768;29;20121;-41
2021/01/01 00:10:35;;;;;;;26.85;16.10;;;;;;;1.70;57.90;94541.44;4771831;29;20411;-40
2021/01/01 00:13:01;;;;;;;26.73;15.95;;;;;;;1.83;57.86;94545.09;4771138;29;20109;-40
2021/01/01 00:15:28;;;;;;;25.77;16.25;;;;;;;1.74;57.80;94529.06;4773344;29;20109;-40
2021/01/01 00:17:54;;;;;;;32.08;18.38;;;;;;;1.64;58.14;94542.66;4774963;30;20055;-39
2021/01/01 00:20:20;;;;;;;36.08;20.45;;;;;;;1.61;58.38;94548.63;4773164;29;20124;-40
2021/01/01 00:22:47;;;;;;;36.20;20.88;;;;;;;1.56;58.66;94541.56;4771312;30;20121;-40
2021/01/01 00:25:13;;;;;;;34.08;20.10;;;;;;;1.39;59.20;94539.59;4771532;29;20056;-40
2021/01/01 00:27:40;;;;;;;36.33;19.23;;;;;;;1.47;59.05;94537.28;4770441;30;20134;-40
2021/01/01 00:30:10;;;;;;;34.10;18.85;;;;;;;1.62;58.64;94544.84;4771084;30;20059;-41
2021/01/01 00:32:40;;;;;;;32.60;19.02;;;;;;;1.76;58.22;94550.09;4770700;30;20138;-40
2021/01/01 00:35:07;;;;;;;30.92;18.05;;;;;;;1.75;58.25;94549.28;4769924;30;20074;-39
2021/01/01 00:37:35;;;;;;;28.13;18.92;;;;;;;1.58;58.32;94551.91;4770199;29;20079;-40
2021/01/01 00:40:04;;;;;;;30.25;18.10;;;;;;;1.30;59.66;94548.66;4771428;29;20328;-40
2021/01/01 00:42:35;;;;;;;29.90;18.13;;;;;;;1.29;59.71;94553.19;4770700;29;20051;-41
2021/01/01 00:45:04;;;;;;;30.70;18.70;;;;;;;1.33;59.35;94550.69;4770574;29;20055;-39
2021/01/01 00:47:31;;;;;;;32.10;19.77;;;;;;;1.40;59.26;94551.84;4770979;29;20063;-40
2021/01/01 00:49:57;;;;;;;33.05;19.73;;;;;;;1.46;58.98;94533.81;4773977;29;20105;-39
2021/01/01 00:52:24;;;;;;;32.90;20.38;;;;;;;1.51;59.11;94546.25;4774222;29;20055;-41
2021/01/01 00:54:50;;;;;;;33.03;19.48;;;;;;;1.64;58.70;94542.66;4770833;29;20090;-40
2021/01/01 00:57:17;;;;;;;37.33;22.33;;;;;;;1.64;58.96;94556.00;4770595;29;20072;-40
2021/01/01 00:59:43;;;;;;;41.25;24.17;;;;;;;1.67;58.90;94557.28;4770867;29;20091;-40
2021/01/01 01:02:09;;;;;;;33.33;19.85;;;;;;;1.60;58.83;94552.38;4771073;29;20461;-40
2021/01/01 01:04:36;;;;;;;32.80;20.50;;;;;;;1.59;58.79;94546.28;4770561;29;20075;-39
2021/01/01 01:07:02;;;;;;;34.95;21.48;;;;;;;1.63;58.67;94552.56;4769522;29;20056;-42
2021/01/01 01:09:29;;;;;;;36.40;22.73;;;;;;;1.57;58.49;94532.47;4769641;29;20055;-40
2021/01/01 01:11:55;;;;;;;36.08;21.55;;;;;;;1.60;58.49;94536.41;4770691;29;20199;-40
2021/01/01 01:14:21;;;;;;;39.90;22.05;;;;;;;1.67;58.25;94525.28;4770751;29;20405;-40
2021/01/01 01:16:48;;;;;;;36.08;21.20;;;;;;;1.70;58.67;94530.00;4770826;29;20060;-40
2021/01/01 01:19:14;;;;;;;31.83;20.55;;;;;;;1.75;58.63;94527.94;4769951;29;20117;-40
2021/01/01 01:21:40;;;;;;;36.08;19.63;;;;;;;1.73;58.42;94538.16;4770130;29;20055;-41
2021/01/01 01:24:07;;;;;;;38.28;21.27;;;;;;;1.34;59.27;94537.09;4771419;29;20047;-40
2021/01/01 01:26:34;;;;;;;38.78;22.77;;;;;;;1.09;60.03;94533.19;4771274;29;20072;-42
2021/01/01 01:29:00;;;;;;;38.03;22.50;;;;;;;1.32;59.94;94544.59;4770185;29;20430;-40
2021/01/01 01:31:27;;;;;;;40.92;23.90;;;;;;;1.36;59.81;94536.75;4770850;29;20067;-40
2021/01/01 01:33:53;;;;;;;34.67;19.50;;;;;;;1.39;59.86;94542.25;4770455;29;20059;-39
2021/01/01 01:36:19;;;;;;;34.15;19.42;;;;;;;1.13;60.23;94541.38;4770228;29;20109;-41
2021/01/01 01:38:46;;;;;;;35.40;19.52;;;;;;;0.75;61.40;94539.13;4769609;30;20097;-39
2021/01/01 01:41:12;;;;;;;33.88;19.75;;;;;;;0.62;61.46;94513.38;4769784;29;20116;-40
2021/01/01 01:43:39;;;;;;;32.85;19.08;;;;;;;0.83;61.62;94540.28;4770659;29;20056;-40
2021/01/01 01:46:05;;;;;;;32.30;18.48;;;;;;;0.88;61.58;94529.50;4770355;29;20056;-40
2021/01/01 01:48:34;;;;;;;30.52;17.70;;;;;;;0.70;61.54;94513.41;4770221;29;20064;-40
2021/01/01 01:51:05;;;;;;;28.90;17.95;;;;;;;0.82;61.13;94531.50;4776365;30;20075;-39
2021/01/01 01:53:37;;;;;;;28.95;16.55;;;;;;;0.88;61.25;94527.63;4775501;29;20082;-40
2021/01/01 01:56:04;;;;;;;23.38;14.30;;;;;;;0.67;60.54;94474.09;4770589;30;20457;-40
2021/01/01 01:58:31;;;;;;;21.85;13.35;;;;;;;1.28;59.55;94510.88;4769364;29;20055;-40
2021/01/01 02:01:01;;;;;;;19.90;12.13;;;;;;;1.33;58.36;94503.53;4768494;30;20079;-40
2021/01/01 02:03:28;;;;;;;27.75;15.57;;;;;;;1.44;59.08;94512.03;4769665;29;20510;-40
2021/01/01 02:05:56;;;;;;;22.52;14.43;;;;;;;1.32;59.05;94522.50;4769502;30;20525;-40
2021/01/01 02:08:23;;;;;;;20.92;12.55;;;;;;;1.49;58.49;94522.53;4768753;29;20064;-40
2021/01/01 02:10:53;;;;;;;21.50;12.05;;;;;;;1.62;57.46;94524.31;4769758;29;20112;-40
2021/01/01 02:13:20;;;;;;;19.33;12.30;;;;;;;1.66;57.65;94521.84;4768638;30;20059;-40
2021/01/01 02:15:47;;;;;;;19.33;12.45;;;;;;;1.74;58.13;94523.72;4769807;29;20056;-40
2021/01/01 02:18:32;;;;;;;21.02;13.50;;;;;;;1.47;58.06;94513.31;4769404;29;20063;-40
2021/01/01 02:20:58;;;;;;;20.65;12.20;;;;;;;1.14;58.90;94505.66;4773764;30;20494;-41
2021/01/01 02:23:25;;;;;;;19.83;13.07;;;;;;;1.00;59.77;94524.38;4770654;30;20116;-40
2021/01/01 02:25:51;;;;;;;19.48;11.50;;;;;;;0.79;59.72;94528.66;4770568;29;20126;-40
2021/01/01 02:28:18;;;;;;;18.75;11.68;;;;;;;0.93;59.54;94532.03;4772672;29;20063;-40
2021/01/01 02:30:45;;;;;;;18.63;11.38;;;;;;;1.01;58.91;94525.16;4774289;29;20102;-39
2021/01/01 02:33:12;;;;;;;21.38;12.32;;;;;;;1.12;58.67;94529.94;4775136;29;20059;-39
2021/01/01 02:35:38;;;;;;;18.77;10.48;;;;;;;1.10;58.12;94513.47;4778102;29;20475;-39
2021/01/01 02:38:04;;;;;;;17.30;10.38;;;;;;;1.28;57.37;94510.88;4773625;29;20486;-40
2021/01/01 02:40:31;;;;;;;20.88;11.10;;;;;;;1.34;57.28;94520.31;4757709;29;20059;-40
2021/01/01 02:42:57;;;;;;;16.75;10.35;;;;;;;1.43;56.84;94513.13;4772914;29;20139;-40
2021/01/01 02:45:23;;;;;;;20.38;10.85;;;;;;;1.35;57.49;94521.88;4772803;29;20060;-40
2021/01/01 02:47:50;;;;;;;20.95;11.30;;;;;;;1.40;57.55;94524.41;4775698;29;20096;-41
2021/01/01 02:50:17;;;;;;;18.00;10.80;;;;;;;1.40;57.20;94509.22;4776572;29;20094;-40
2021/01/01 02:52:44;;;;;;;19.98;12.18;;;;;;;1.57;57.62;94515.69;4772871;29;20079;-40
2021/01/01 02:55:11;;;;;;;17.13;10.80;;;;;;;1.66;57.15;94516.50;4772606;29;20661;-40
2021/01/01 02:57:38;;;;;;;19.00;10.32;;;;;;;1.78;57.31;94510.53;4771843;29;20083;-40
2021/01/01 03:00:06;;;;;;;17.20;10.10;;;;;;;1.73;56.40;94511.50;4772785;29;20138;-41
2021/01/01 03:02:33;;;;;;;15.65;9.75;;;;;;;1.80;56.75;94513.69;4772294;29;20060;-40
2021/01/01 03:05:00;;;;;;;13.93;8.40;;;;;;;1.84;56.10;94514.63;4772813;29;20111;-38
2021/01/01 03:07:26;;;;;;;14.85;9.13;;;;;;;1.76;55.93;94502.88;4772901;30;20059;-38
2021/01/01 03:09:52;;;;;;;16.70;9.15;;;;;;;1.95;55.81;94513.25;4773013;29;20087;-39
2021/01/01 03:12:19;;;;;;;14.35;8.88;;;;;;;2.03;55.63;94511.69;4773010;29;20056;-38
2021/01/01 03:14:46;;;;;;;15.75;8.23;;;;;;;2.06;54.62;94505.72;4773851;30;20078;-39
2021/01/01 03:17:13;;;;;;;13.95;8.68;;;;;;;1.74;55.17;94514.94;4773985;29;20071;-39
2021/01/01 03:19:39;;;;;;;14.80;8.88;;;;;;;1.49;56.10;94519.88;4772579;30;20134;-39
2021/01/01 03:22:06;;;;;;;15.30;8.85;;;;;;;1.29;56.78;94515.09;4773184;30;20434;-37
2021/01/01 03:24:32;;;;;;;14.55;8.90;;;;;;;0.86;57.92;94518.38;4773347;30;20064;-38
2021/01/01 03:26:59;;;;;;;15.50;8.77;;;;;;;0.94;57.97;94517.59;4773135;30;20090;-39
2021/01/01 03:29:25;;;;;;;16.38;9.23;;;;;;;1.23;58.29;94521.66;4771193;30;20457;-40
2021/01/01 03:31:51;;;;;;;16.02;9.70;;;;;;;1.35;56.87;94528.00;4772466;29;20110;-40
2021/01/01 03:34:18;;;;;;;17.92;9.13;;;;;;;1.17;57.45;94510.38;4772167;29;20060;-39
2021/01/01 03:36:45;;;;;;;12.90;9.15;;;;;;;1.11;57.59;94514.25;4772642;30;20595;-38
2021/01/01 03:39:12;;;;;;;15.48;8.90;;;;;;;1.14;57.06;94522.44;4770486;30;20100;-38
2021/01/01 03:41:38;;;;;;;13.30;7.90;;;;;;;1.00;56.50;94511.06;4770644;30;20067;-39
2021/01/01 03:44:05;;;;;;;13.40;8.13;;;;;;;0.91;57.46;94504.91;4771384;29;20485;-38
2021/01/01 03:46:31;;;;;;;14.07;7.60;;;;;;;0.86;57.36;94481.09;4770824;30;20067;-38
2021/01/01 03:48:58;;;;;;;13.45;8.02;;;;;;;1.16;57.18;94488.25;4771501;29;20109;-38
2021/01/01 03:51:27;;;;;;;15.77;8.52;;;;;;;1.27;57.40;94486.13;4770934;30;20055;-38
2021/01/01 03:53:53;;;;;;;13.77;8.77;;;;;;;1.28;56.75;94489.56;4771775;30;20064;-38
2021/01/01 03:56:20;;;;;;;14.20;8.80;;;;;;;1.27;57.61;94487.97;4772251;29;20225;-37
2021/01/01 03:58:46;;;;;;;13.18;8.20;;;;;;;1.22;57.68;94486.25;4771363;30;20059;-38
2021/01/01 04:01:16;;;;;;;13.02;8.13;;;;;;;1.06;58.31;94485.88;4772328;29;20071;-38
2021/01/01 04:03:43;;;;;;;12.95;8.13;;;;;;;1.05;57.33;94499.50;4771904;30;20068;-39
2021/01/01 04:06:10;;;;;;;14.73;8.75;;;;;;;1.12;57.65;94505.97;4771882;30;20063;-38
2021/01/01 04:08:36;;;;;;;14.57;8.98;;;;;;;0.69;59.14;94506.53;4771091;30;20056;-38
2021/01/01 04:11:03;;;;;;;13.68;7.43;;;;;;;0.53;58.88;94513.31;4771644;30;20144;-38
2021/01/01 04:13:29;;;;;;;12.45;8.15;;;;;;;0.25;60.25;94519.84;4770273;30;20079;-39
2021/01/01 04:15:56;;;;;;;11.77;7.22;;;;;;;0.43;59.23;94519.66;4771103;30;20135;-40
2021/01/01 04:18:22;;;;;;;14.05;8.07;;;;;;;0.73;58.77;94524.56;4770899;30;20525;-39
2021/01/01 04:20:48;;;;;;;13.93;7.50;;;;;;;0.67;58.26;94522.00;4771376;30;20055;-39
2021/01/01 04:23:15;;;;;;;12.20;7.35;;;;;;;0.76;58.51;94523.94;4771058;30;20602;-39
2021/01/01 04:25:41;;;;;;;13.55;7.40;;;;;;;0.73;58.02;94522.66;4770987;29;20396;-39
2021/01/01 04:28:07;;;;;;;13.18;7.35;;;;;;;0.66;58.10;94522.31;4771664;29;20113;-39
2021/01/01 04:30:34;;;;;;;12.00;7.78;;;;;;;0.66;58.39;94527.66;4771170;29;20060;-40
2021/01/01 04:33:00;;;;;;;13.52;8.13;;;;;;;0.64;58.30;94524.50;4770997;30;20058;-39
2021/01/01 04:35:27;;;;;;;13.75;7.90;;;;;;;0.52;59.06;94525.06;4771751;29;20078;-40
2021/01/01 04:37:53;;;;;;;14.55;8.20;;;;;;;0.26;60.16;94516.06;4773157;30;20059;-39
2021/01/01 04:40:20;;;;;;;20.83;12.30;;;;;;;0.23;61.78;94526.25;4774066;30;20071;-38
2021/01/01 04:42:47;;;;;;;17.60;10.35;;;;;;;0.03;62.71;94529.34;4769531;30;20123;-39
2021/01/01 04:45:15;;;;;;;18.13;10.98;;;;;;;0.04;63.09;94532.81;4770707;29;20055;-39
2021/01/01 04:47:41;;;;;;;18.80;11.88;;;;;;;0.00;63.46;94532.63;4769186;30;20059;-39
2021/01/01 04:50:08;;;;;;;21.42;12.13;;;;;;;-0.02;63.77;94542.75;4770418;29;20413;-38
2021/01/01 04:52:35;;;;;;;21.40;13.60;;;;;;;0.27;63.07;94537.06;4769082;29;20428;-40
2021/01/01 04:55:02;;;;;;;23.90;13.50;;;;;;;-0.03;63.93;94534.00;4770068;29;20052;-39
2021/01/01 04:57:29;;;;;;;22.75;13.45;;;;;;;0.01;63.90;94534.19;4769475;29;20383;-39
2021/01/01 04:59:55;;;;;;;25.52;15.23;;;;;;;0.03;63.74;94534.66;4769728;30;20087;-39
2021/01/01 05:02:22;;;;;;;25.63;15.00;;;;;;;-0.03;64.17;94533.22;4770890;29;20064;-39
2021/01/01 05:04:49;;;;;;;25.25;14.40;;;;;;;-0.06;64.38;94541.78;4771361;29;20055;-40
2021/01/01 05:07:19;;;;;;;26.50;14.77;;;;;;;0.12;63.94;94527.53;4771197;29;20348;-39
2021/01/01 05:09:48;;;;;;;26.83;15.30;;;;;;;0.39;63.01;94525.88;4773192;30;20068;-39
2021/01/01 05:12:15;;;;;;;24.15;14.15;;;;;;;0.68;61.86;94544.09;4771529;29;20159;-42
2021/01/01 05:14:42;;;;;;;24.23;14.68;;;;;;;0.85;62.05;94530.91;4777615;29;20077;-40
2021/01/01 05:17:09;;;;;;;22.90;13.23;;;;;;;0.95;62.00;94542.38;4779271;29;20059;-39
2021/01/01 05:19:37;;;;;;;21.38;12.80;;;;;;;1.03;61.53;94549.63;4775852;30;20098;-40
2021/01/01 05:22:06;;;;;;;23.83;15.05;;;;;;;0.86;61.72;94497.06;4777030;29;20064;-40
2021/01/01 05:24:47;;;;;;;27.17;16.35;;;;;;;1.29;61.55;94545.19;4771511;29;20055;-40
2021/01/01 05:27:17;;;;;;;29.10;17.60;;;;;;;0.95;62.19;94529.84;4769820;29;20067;-39
2021/01/01 05:29:52;;;;;;;27.52;16.55;;;;;;;1.15;61.93;94547.19;4770180;30;20063;-40
2021/01/01 05:32:20;;;;;;;32.72;17.48;;;;;;;1.14;61.44;94557.06;4768852;30;20415;-39
2021/01/01 05:34:47;;;;;;;30.27;17.25;;;;;;;1.09;61.72;94549.19;4772467;29;20060;-39
2021/01/01 05:37:31;;;;;;;30.60;16.77;;;;;;;1.13;62.25;94552.03;4776226;30;20060;-40
2021/01/01 05:40:00;;;;;;;;;;;;;;;1.40;61.56;94545.75;4776103;30;20138;-39
2021/01/01 05:42:26;;;;;;;32.03;19.92;;;;;;;1.27;61.68;94550.06;4769769;29;20284;-39
2021/01/01 05:44:53;;;;;;;34.05;20.20;;;;;;;1.28;61.13;94548.19;4769655;29;20059;-39
2021/01/01 05:47:19;;;;;;;34.50;20.20;;;;;;;1.24;61.02;94545.34;4768979;29;20059;-39
2021/01/01 05:49:46;;;;;;;34.17;21.50;;;;;;;1.29;61.18;94552.41;4769287;29;20480;-38
2021/01/01 05:52:18;;;;;;;38.15;21.08;;;;;;;1.01;61.60;94557.13;4769270;30;20112;-39
2021/01/01 05:54:47;;;;;;;32.17;19.88;;;;;;;0.62;62.74;94551.41;4770278;29;20064;-39
2021/01/01 05:57:15;;;;;;;32.83;19.92;;;;;;;0.48;63.20;94548.00;4769646;29;20089;-39
2021/01/01 05:59:44;;;;;;;32.90;19.10;;;;;;;0.34;63.63;94555.28;4769402;29;20060;-39
2021/01/01 06:02:11;;;;;;;30.33;17.52;;;;;;;0.02;64.94;94559.69;4754261;30;20066;-39
2021/01/01 06:04:39;;;;;;;30.80;18.50;;;;;;;-0.06;65.04;94568.38;4770271;30;20302;-38
2021/01/01 06:07:09;;;;;;;34.17;18.73;;;;;;;0.03;65.05;94555.94;4769006;29;20575;-40
2021/01/01 06:09:37;;;;;;;33.78;19.88;;;;;;;-0.05;64.84;94544.13;4768530;29;20075;-39
2021/01/01 06:12:13;;;;;;;35.22;20.33;;;;;;;0.06;64.94;94571.28;4769468;29;20055;-40
2021/01/01 06:14:41;;;;;;;34.67;20.17;;;;;;;0.37;64.12;94581.28;4769314;29;20055;-39
2021/01/01 06:17:10;;;;;;;33.42;20.92;;;;;;;0.26;64.50;94577.25;4769341;29;20055;-39
2021/01/01 06:19:52;;;;;;;35.03;20.35;;;;;;;0.08;65.15;94578.97;4768705;30;20055;-39
2021/01/01 06:22:19;;;;;;;38.42;21.30;;;;;;;0.03;65.41;94577.19;4769077;29;20510;-40
2021/01/01 06:24:52;;;;;;;37.78;20.42;;;;;;;0.14;65.03;94591.09;4771237;30;20128;-39
2021/01/01 06:27:20;;;;;;;38.35;20.83;;;;;;;0.36;64.36;94590.34;4772092;29;20063;-40
2021/01/01 06:29:50;;;;;;;39.65;21.95;;;;;;;0.21;64.96;94596.78;4769226;29;20084;-39
2021/01/01 06:32:19;;;;;;;37.45;21.58;;;;;;;-0.15;65.52;94591.44;4769304;29;20063;-40
2021/01/01 06:34:47;;;;;;;35.70;21.05;;;;;;;-0.29;65.71;94608.19;4768004;30;20066;-39
2021/01/01 06:37:37;;;;;;;37.85;20.80;;;;;;;-0.59;66.76;94619.34;4769030;29;20051;-39
2021/01/01 06:40:06;;;;;;;38.53;20.75;;;;;;;-0.64;67.40;94622.13;4769150;29;20060;-38
2021/01/01 06:42:52;;;;;;;34.55;20.27;;;;;;;-0.37;66.98;94622.13;4769216;29;20062;-39
2021/01/01 06:45:36;;;;;;;34.90;21.70;;;;;;;-0.25;66.70;94605.72;4768167;30;20052;-39
2021/01/01 06:48:04;;;;;;;37.88;21.30;;;;;;;-0.03;65.99;94634.25;4768666;30;20094;-39
2021/01/01 06:50:35;;;;;;;36.55;20.95;;;;;;;-0.09;65.65;94641.53;4769125;29;20056;-39
2021/01/01 06:53:13;;;;;;;36.85;21.80;;;;;;;-0.55;67.32;94623.81;4769137;29;20098;-38
2021/01/01 06:55:44;;;;;;;33.53;19.30;;;;;;;-0.24;66.77;94644.50;4767860;29;20084;-39
2021/01/01 06:58:12;;;;;;;38.22;20.88;;;;;;;-0.08;65.89;94635.13;4768602;30;20147;-38
2021/01/01 07:00:44;;;;;;;33.47;19.23;;;;;;;-0.04;65.90;94648.63;4769167;29;20051;-39
2021/01/01 07:03:28;;;;;;;31.38;18.60;;;;;;;-0.04;65.91;94652.06;4769151;29;20422;-39
2021/01/01 07:05:56;;;;;;;31.60;19.33;;;;;;;-0.23;66.66;94648.72;4769072;30;20075;-39
2021/01/01 07:08:41;;;;;;;33.53;19.27;;;;;;;-0.22;66.73;94649.53;4768429;29;20068;-40
2021/01/01 07:11:07;;;;;;;36.10;20.58;;;;;;;-0.38;66.60;94647.16;4768613;29;20052;-39
2021/01/01 07:13:54;;;;;;;32.30;17.52;;;;;;;-0.61;67.79;94632.16;4769038;29;20146;-40
2021/01/01 07:16:22;;;;;;;31.65;18.90;;;;;;;-0.47;67.68;94654.22;4768910;29;20112;-39
2021/01/01 07:18:50;;;;;;;29.33;18.13;;;;;;;-0.29;67.10;94656.00;4769005;29;20079;-39
2021/01/01 07:21:18;;;;;;;30.25;17.27;;;;;;;-0.08;66.50;94650.31;4772240;29;20052;-40
2021/01/01 07:23:46;;;;;;;28.00;17.48;;;;;;;0.02;66.20;94660.72;4772195;29;20063;-39
2021/01/01 07:26:14;;;;;;;29.30;18.67;;;;;;;0.01;65.85;94639.78;4772306;29;20147;-38
2021/01/01 07:28:42;;;;;;;30.13;18.13;;;;;;;0.17;65.25;94663.09;4771078;29;20491;-38
2021/01/01 07:31:13;;;;;;;34.08;19.10;;;;;;;0.26;65.17;94654.41;4771804;30;20135;-39
2021/01/01 07:33:40;;;;;;;33.65;19.40;;;;;;;-0.07;65.51;94647.34;4772406;29;20060;-39
2021/01/01 07:36:09;;;;;;;30.83;18.50;;;;;;;-0.08;66.00;94652.97;4772303;30;20055;-40
2021/01/01 07:38:37;;;;;;;34.97;19.45;;;;;;;-0.06;65.48;94662.22;4771374;29;20198;-40
2021/01/01 07:41:06;;;;;;;39.88;20.98;;;;;;;-0.12;65.81;94659.97;4773544;30;20142;-40
2021/01/01 07:43:33;;;;;;;28.83;17.80;;;;;;;-0.08;65.86;94663.59;4777339;29;20572;-39
2021/01/01 07:46:04;;;;;;;30.55;18.42;;;;;;;-0.10;66.00;94665.75;4778641;29;20478;-39
2021/01/01 07:48:31;;;;;;;31.33;19.30;;;;;;;-0.02;65.59;94668.50;4775278;29;20088;-40
2021/01/01 07:51:02;;;;;;;30.45;18.58;;;;;;;-0.08;65.89;94664.38;4775989;29;20052;-39
2021/01/01 07:53:30;;;;;;;32.97;19.10;;;;;;;-0.43;66.75;94660.50;4780595;29;20059;-40
2021/01/01 07:56:01;;;;;;;30.35;18.27;;;;;;;-0.47;68.15;94675.47;4777601;29;20051;-40
2021/01/01 07:58:30;;;;;;;32.55;17.73;;;;;;;-0.96;69.62;94671.50;4772610;29;20060;-39
2021/01/01 08:01:01;;;;;;;28.42;16.00;;;;;;;-0.96;70.03;94677.59;4771358;30;20055;-39
2021/01/01 08:03:28;;;;;;;28.48;15.45;;;;;;;-1.02;70.57;94675.31;4771757;29;20101;-39
2021/01/01 08:05:55;;;;;;;26.77;14.77;;;;;;;-1.09;70.36;94670.38;4772019;29;20116;-40
2021/01/01 08:08:23;;;;;;;26.10;15.35;;;;;;;-0.64;69.59;94680.56;4771213;29;20060;-39
2021/01/01 08:10:52;;;;;;;30.10;15.63;;;;;;;-0.20;68.47;94689.88;4771306;29;20121;-39
2021/01/01 08:13:25;;;;;;;25.13;15.60;;;;;;;0.09;66.91;94689.59;4771500;30;20132;-40
2021/01/01 08:15:54;;;;;;;23.20;14.75;;;;;;;0.07;66.54;94676.59;4771625;29;20522;-40
2021/01/01 08:18:23;;;;;;;25.55;15.77;;;;;;;0.18;66.37;94690.47;4772473;30;20055;-40
2021/01/01 08:20:59;;;;;;;25.65;15.27;;;;;;;0.08;66.54;94693.34;4777066;29;20052;-40
2021/01/01 08:23:28;;;;;;;26.35;16.10;;;;;;;-0.62;69.14;94695.09;4775869;29;20510;-39
2021/01/01 08:25:55;;;;;;;28.05;15.98;;;;;;;-0.75;69.76;94699.31;4774579;30;20120;-40
2021/01/01 08:28:26;;;;;;;21.98;14.27;;;;;;;-0.82;70.35;94696.22;4773456;29;20072;-40
2021/01/01 08:31:00;;;;;;;24.00;15.52;;;;;;;-0.62;69.42;94694.31;4771058;29;20490;-40
2021/01/01 08:33:31;;;;;;;22.55;13.90;;;;;;;-0.72;69.59;94690.75;4771583;29;20065;-39
2021/01/01 08:36:03;;;;;;;22.58;14.50;;;;;;;-0.81;70.01;94681.13;4771650;30;20485;-39
2021/01/01 08:38:29;;;;;;;25.00;14.32;;;;;;;-0.72;69.65;94685.44;4777551;29;20079;-39
2021/01/01 08:40:57;;;;;;;22.30;13.55;;;;;;;-0.39;68.18;94677.47;4778688;30;20056;-39
2021/01/01 08:43:25;;;;;;;23.88;14.13;;;;;;;-0.29;67.92;94703.84;4780221;29;20060;-40
2021/01/01 08:45:52;;;;;;;25.92;14.48;;;;;;;0.23;66.57;94703.69;4778789;29;20109;-38
2021/01/01 08:48:19;;;;;;;23.08;13.63;;;;;;;0.30;66.09;94698.75;4770376;29;20538;-41
2021/01/01 08:50:50;;;;;;;21.98;13.18;;;;;;;0.44;65.65;94704.84;4771137;29;20538;-39
2021/01/01 08:53:18;;;;;;;22.60;13.38;;;;;;;0.63;64.81;94712.69;4770972;29;20060;-39
2021/01/01 08:55:58;;;;;;;19.92;12.65;;;;;;;0.82;64.13;94706.44;4774246;29;20113;-38
2021/01/01 08:58:26;;;;;;;20.25;11.60;;;;;;;0.90;62.93;94709.16;4771218;29;20082;-40
2021/01/01 09:01:16;;;;;;;21.20;11.50;;;;;;;0.87;63.30;94711.66;4769459;30;20229;-38
2021/01/01 09:03:44;;;;;;;24.80;13.18;;;;;;;1.14;62.83;94713.44;4770637;29;20590;-39
2021/01/01 09:06:17;;;;;;;20.33;11.90;;;;;;;1.04;62.54;94708.31;4754486;30;20502;-39
2021/01/01 09:08:44;;;;;;;19.50;12.65;;;;;;;1.02;62.61;94723.84;4768629;30;20063;-38
2021/01/01 09:11:21;;;;;;;19.35;12.88;;;;;;;1.27;62.32;94730.44;4770149;29;20121;-38
2021/01/01 09:14:05;;;;;;;21.33;13.32;;;;;;;1.53;61.60;94730.66;4770499;29;20558;-40
2021/01/01 09:16:46;;;;;;;20.08;13.77;;;;;;;1.68;60.78;94734.81;4770232;30;20061;-39
2021/01/01 09:19:12;;;;;;;19.23;12.13;;;;;;;1.89;60.27;94740.44;4769675;29;20067;-41
2021/01/01 09:21:40;;;;;;;22.08;13.43;;;;;;;2.02;59.73;94739.56;4768952;30;20065;-40
2021/01/01 09:24:07;;;;;;;20.83;12.75;;;;;;;2.06;59.12;94741.28;4770424;29;20066;-40
2021/01/01 09:26:34;;;;;;;21.30;12.80;;;;;;;2.02;59.19;94744.88;4770040;29;20058;-42
2021/01/01 09:29:06;;;;;;;20.08;12.68;;;;;;;2.28;58.71;94745.78;4769089;29;20083;-40
2021/01/01 09:31:33;;;;;;;21.13;12.80;;;;;;;2.55;58.00;94747.44;4789186;24;20056;-40
2021/01/01 09:34:05;;;;;;;18.17;12.18;;;;;;;2.68;57.72;94750.28;4751831;30;20059;-39
2021/01/01 09:36:36;;;;;;;21.05;13.15;;;;;;;2.75;57.43;94761.31;4751994;30;20083;-39
2021/01/01 09:39:07;;;;;;;18.92;12.23;;;;;;;2.89;57.09;94767.28;4751928;30;20068;-38
2021/01/01 09:41:35;;;;;;;19.10;12.00;;;;;;;3.00;56.41;94752.56;4752355;30;20071;-39
2021/01/01 09:44:02;;;;;;;18.05;11.95;;;;;;;3.11;55.96;94752.25;4751312;30;20081;-38
2021/01/01 09:46:30;;;;;;;17.35;11.27;;;;;;;3.13;55.93;94776.78;4752384;29;20117;-42
2021/01/01 09:48:56;;;;;;;18.13;12.20;;;;;;;3.14;56.33;94775.69;4751429;30;20056;-41
2021/01/01 09:51:23;;;;;;;16.92;11.32;;;;;;;3.03;56.68;94784.00;4751600;30;20067;-41
2021/01/01 09:53:49;;;;;;;18.73;12.30;;;;;;;3.13;56.10;94782.91;4751385;30;20066;-40
2021/01/01 09:56:16;;;;;;;19.67;12.63;;;;;;;3.28;56.17;94789.66;4751310;30;20080;-40
2021/01/01 09:58:42;;;;;;;17.67;10.80;;;;;;;3.27;55.86;94777.41;4750602;30;20115;-42
2021/01/01 10:01:08;;;;;;;18.75;12.13;;;;;;;3.41;56.11;94777.25;4765040;30;20576;-47
2021/01/01 10:03:35;;;;;;;18.08;11.40;;;;;;;3.47;55.60;94781.34;4751368;30;20068;-39
2021/01/01 10:06:01;;;;;;;17.52;11.40;;;;;;;3.46;54.99;94785.13;4751284;30;20086;-39
2021/01/01 10:08:28;;;;;;;17.35;10.70;;;;;;;3.69;54.98;94786.53;4750686;30;20056;-39
2021/01/01 10:10:56;;;;;;;16.55;10.98;;;;;;;3.44;55.38;94785.44;4751096;30;20139;-39
2021/01/01 10:13:23;;;;;;;17.83;11.13;;;;;;;3.17;56.21;94788.41;4764700;30;20060;-39
2021/01/01 10:15:49;;;;;;;18.92;11.25;;;;;;;3.12;56.92;94785.88;4751035;30;20519;-39
2021/01/01 10:18:16;;;;;;;19.55;10.65;;;;;;;3.40;56.44;94792.50;4750745;30;20064;-39
2021/01/01 10:20:42;;;;;;;17.23;10.20;;;;;;;3.47;55.69;94800.84;4751408;30;20143;-39
2021/01/01 10:23:09;;;;;;;14.98;10.05;;;;;;;3.52;55.35;94797.25;4751415;30;20066;-40
2021/01/01 10:25:35;;;;;;;19.77;11.00;;;;;;;3.60;54.55;94798.34;4751566;30;20477;-40
2021/01/01 10:28:02;;;;;;;17.27;10.20;;;;;;;3.34;55.52;94793.75;4751277;29;20437;-41
2021/01/01 10:30:28;;;;;;;15.02;9.40;;;;;;;3.23;55.82;94803.19;4751217;30;20147;-40
2021/01/01 10:32:55;;;;;;;14.25;9.25;;;;;;;3.61;54.80;94786.56;4751149;30;20147;-41
2021/01/01 10:35:22;;;;;;;14.02;8.30;;;;;;;3.31;54.75;94783.69;4749869;30;20052;-41
2021/01/01 10:37:51;;;;;;;11.88;7.88;;;;;;;2.37;57.10;94779.72;4750399;30;20063;-40
2021/01/01 10:40:18;;;;;;;13.80;8.05;;;;;;;2.12;58.72;94784.63;4751142;30;20063;-40
2021/01/01 10:42:44;;;;;;;13.25;8.82;;;;;;;2.43;58.46;94778.47;4751042;30;20135;-44
2021/01/01 10:45:30;;;;;;;16.92;9.07;;;;;;;2.37;59.03;94771.69;4751520;30;20084;-42
2021/01/01 10:47:57;;;;;;;18.70;9.50;;;;;;;2.55;58.76;94779.47;4763953;30;20064;-44
2021/01/01 10:50:23;;;;;;;16.60;9.57;;;;;;;2.70;58.71;94775.59;4750839;30;20057;-40
2021/01/01 10:52:50;;;;;;;15.45;9.05;;;;;;;2.48;59.07;94779.13;4751065;30;20418;-39
2021/01/01 10:55:16;;;;;;;19.65;9.43;;;;;;;2.51;59.54;94767.84;4754066;30;20135;-38
2021/01/01 10:57:42;;;;;;;17.50;9.57;;;;;;;3.13;57.96;94768.75;4754296;30;20121;-38
2021/01/01 11:00:09;;;;;;;14.23;9.15;;;;;;;3.51;56.67;94764.38;4754811;30;20056;-42
2021/01/01 11:02:36;;;;;;;15.70;8.80;;;;;;;3.66;55.56;94767.66;4754888;30;20056;-42
2021/01/01 11:05:03;;;;;;;17.13;9.43;;;;;;;3.40;56.82;94760.44;4754653;30;20048;-41
2021/01/01 11:07:30;;;;;;;15.35;9.13;;;;;;;3.19;57.77;94743.47;4753798;30;20135;-41
2021/01/01 11:09:57;;;;;;;18.25;8.95;;;;;;;3.35;58.45;94747.22;4754629;30;20118;-44
2021/01/01 11:12:23;;;;;;;17.50;8.50;;;;;;;3.25;58.43;94748.34;4754437;30;20064;-40
2021/01/01 12:23:58;;;;;;;11.93;6.47;;;;;;;5.43;60.11;94724.13;4753026;30;20121;-40
2021/01/01 12:26:25;;;;;;;11.13;6.88;;;;;;;4.90;61.89;94713.00;4752967;30;20056;-43
2021/01/01 12:29:04;;;;;;;12.00;6.45;;;;;;;4.63;63.36;94718.84;4752572;30;20056;-39
2021/01/01 12:31:31;;;;;;;10.65;6.38;;;;;;;4.48;63.93;94716.72;4752707;30;20060;-43
2021/01/01 12:33:57;;;;;;;10.60;6.25;;;;;;;3.92;66.29;94716.78;4752801;30;20060;-40
2021/01/01 12:36:24;;;;;;;10.88;6.70;;;;;;;4.24;65.48;94712.72;4752798;30;20241;-40
2021/01/01 12:38:50;;;;;;;9.65;6.25;;;;;;;4.52;64.47;94712.28;4751909;30;20064;-38
2021/01/01 12:41:17;;;;;;;11.68;6.53;;;;;;;4.61;63.84;94710.34;4752947;30;20083;-43